createdAt,value
2022-10-08T00:01:07.091Z,10.57
2022-10-08T00:03:37.725Z,9.81
2022-10-08T00:06:12.427Z,10.67
2022-10-08T00:08:41.675Z,10.66
2022-10-08T00:11:11.183Z,10.30
2022-10-08T00:13:40.992Z,9.25
2022-10-08T00:16:12.660Z,10.40
2022-10-08T00:18:44.858Z,10.27
2022-10-08T00:21:16.543Z,10.34
2022-10-08T00:23:44.709Z,8.71
2022-10-08T00:26:11.506Z,9.04
2022-10-08T00:28:41.966Z,9.04
2022-10-08T00:31:11.483Z,9.05
2022-10-08T00:33:38.561Z,9.20
2022-10-08T00:36:08.160Z,10.07
2022-10-08T00:38:35.859Z,9.17
2022-10-08T00:41:05.618Z,9.42
2022-10-08T00:43:45.501Z,9.94
2022-10-08T00:46:25.315Z,9.97
2022-10-08T00:49:11.580Z,9.27
2022-10-08T00:51:44.103Z,9.26
2022-10-08T00:54:12.986Z,10.47
2022-10-08T00:56:41.295Z,9.34
2022-10-08T00:59:10.979Z,10.43
2022-10-08T01:01:41.191Z,10.05
2022-10-08T01:04:09.333Z,10.07
2022-10-08T01:06:42.630Z,10.34
2022-10-08T01:09:19.100Z,9.58
2022-10-08T01:12:18.605Z,10.00
2022-10-08T01:15:01.762Z,8.93
2022-10-08T01:17:37.498Z,10.29
2022-10-08T01:20:13.283Z,10.30
2022-10-08T01:22:52.348Z,10.31
2022-10-08T01:25:35.527Z,9.28
2022-10-08T01:28:19.792Z,8.97
2022-10-08T01:30:59.578Z,9.23
2022-10-08T01:33:35.723Z,9.92
2022-10-08T01:36:05.164Z,9.83
2022-10-08T01:38:35.744Z,8.55
2022-10-08T01:41:08.235Z,9.05
2022-10-08T01:43:40.436Z,9.41
2022-10-08T01:46:22.381Z,10.25
2022-10-08T01:48:51.998Z,10.00
2022-10-08T01:51:27.339Z,9.92
2022-10-08T01:53:55.309Z,8.80
2022-10-08T01:56:27.047Z,10.05
2022-10-08T01:59:03.737Z,10.11
2022-10-08T02:02:01.467Z,10.09
2022-10-08T02:04:33.840Z,9.74
2022-10-08T02:07:15.348Z,9.06
2022-10-08T02:09:48.037Z,9.84
2022-10-08T02:12:14.938Z,10.04
2022-10-08T02:14:47.104Z,10.05
2022-10-08T02:17:33.046Z,10.06
2022-10-08T02:20:02.833Z,10.03
2022-10-08T02:22:45.601Z,9.62
2022-10-08T02:25:24.524Z,9.99
2022-10-08T02:28:28.326Z,9.98
2022-10-08T02:31:04.908Z,8.69
2022-10-08T02:33:37.889Z,9.56
2022-10-08T02:36:08.172Z,9.17
2022-10-08T02:38:41.261Z,9.94
2022-10-08T02:41:11.385Z,9.24
2022-10-08T02:43:45.227Z,9.86
2022-10-08T02:46:17.736Z,9.91
2022-10-08T02:48:51.087Z,9.84
2022-10-08T02:51:18.772Z,9.32
2022-10-08T02:53:47.576Z,8.62
2022-10-08T02:56:37.724Z,9.90
2022-10-08T02:59:05.592Z,9.61
2022-10-08T03:01:48.808Z,9.61
2022-10-08T03:04:26.039Z,8.82
2022-10-08T03:06:54.157Z,9.78
2022-10-08T03:09:22.781Z,9.04
2022-10-08T03:11:50.327Z,8.77
2022-10-08T03:14:20.297Z,9.21
2022-10-08T03:16:48.174Z,8.67
2022-10-08T03:19:16.722Z,8.66
2022-10-08T03:21:45.534Z,9.93
2022-10-08T03:24:14.521Z,9.84
2022-10-08T03:26:41.715Z,9.00
2022-10-08T03:29:09.171Z,9.52
2022-10-08T03:31:36.250Z,8.86
2022-10-08T03:34:02.992Z,8.93
2022-10-08T03:36:30.433Z,9.57
2022-10-08T03:38:57.472Z,8.87
2022-10-08T03:41:25.503Z,9.19
2022-10-08T03:43:52.337Z,10.28
2022-10-08T03:46:19.340Z,9.19
2022-10-08T03:48:49.683Z,9.80
2022-10-08T03:51:18.374Z,10.29
2022-10-08T03:53:45.912Z,10.25
2022-10-08T03:56:15.465Z,10.20
2022-10-08T03:58:43.021Z,9.20
2022-10-08T04:01:17.791Z,9.02
2022-10-08T04:03:45.451Z,9.01
2022-10-08T04:06:12.696Z,9.86
2022-10-08T04:08:40.092Z,10.31
2022-10-08T04:11:10.110Z,9.70
2022-10-08T04:13:38.125Z,10.28
2022-10-08T04:16:10.856Z,10.22
2022-10-08T04:18:38.034Z,9.27
2022-10-08T04:21:08.491Z,10.29
2022-10-08T04:23:37.912Z,10.26
2022-10-08T04:26:05.329Z,10.16
2022-10-08T04:28:37.547Z,9.11
2022-10-08T04:31:08.625Z,10.00
2022-10-08T04:33:36.437Z,10.14
2022-10-08T04:36:12.063Z,10.14
2022-10-08T04:38:39.331Z,10.05
2022-10-08T04:41:06.797Z,10.10
2022-10-08T04:43:35.335Z,10.12
2022-10-08T04:46:03.183Z,10.14
2022-10-08T04:48:30.362Z,10.16
2022-10-08T04:50:59.172Z,9.77
2022-10-08T04:53:26.965Z,10.13
2022-10-08T04:55:55.167Z,8.91
2022-10-08T04:58:23.339Z,8.94
2022-10-08T05:00:50.727Z,9.95
2022-10-08T05:03:17.801Z,10.32
2022-10-08T05:05:46.459Z,10.09
2022-10-08T05:08:13.871Z,10.39
2022-10-08T05:10:48.366Z,9.23
2022-10-08T05:13:15.389Z,9.71
2022-10-08T05:15:42.458Z,9.25
2022-10-08T05:18:10.289Z,10.35
2022-10-08T05:20:38.040Z,10.09
2022-10-08T05:23:05.115Z,9.55
2022-10-08T05:25:33.482Z,10.59
2022-10-08T05:28:01.573Z,10.39
2022-10-08T05:30:28.425Z,9.75
2022-10-08T05:32:55.433Z,10.66
2022-10-08T05:35:22.447Z,9.97
2022-10-08T05:37:49.279Z,10.65
2022-10-08T05:40:16.336Z,10.51
2022-10-08T05:42:43.427Z,10.76
2022-10-08T05:45:10.875Z,10.34
2022-10-08T05:47:38.270Z,11.08
2022-10-08T05:50:06.026Z,10.89
2022-10-08T05:52:33.021Z,10.47
2022-10-08T05:55:00.453Z,11.43
2022-10-08T05:57:28.146Z,11.57
2022-10-08T05:59:55.060Z,12.21
2022-10-08T06:02:22.318Z,11.89
2022-10-08T06:04:50.391Z,11.49
2022-10-08T06:07:17.318Z,11.91
2022-10-08T06:09:45.253Z,12.81
2022-10-08T06:12:13.914Z,12.76
2022-10-08T06:14:41.187Z,12.26
2022-10-08T06:17:08.034Z,13.62
2022-10-08T06:19:37.336Z,13.74
2022-10-08T06:22:05.125Z,13.84
2022-10-08T06:24:32.476Z,12.94
2022-10-08T06:26:59.547Z,13.84
2022-10-08T06:29:26.802Z,13.86
2022-10-08T06:31:53.821Z,14.35
2022-10-08T06:34:22.011Z,14.40
2022-10-08T06:36:50.215Z,14.61
2022-10-08T06:39:18.452Z,14.70
2022-10-08T06:41:45.510Z,14.57
2022-10-08T06:44:14.566Z,14.03
2022-10-08T06:46:42.459Z,14.70
2022-10-08T06:49:10.435Z,14.83
2022-10-08T06:51:38.350Z,14.77
2022-10-08T06:54:08.299Z,14.45
2022-10-08T06:56:37.500Z,15.06
2022-10-08T06:59:06.598Z,14.41
2022-10-08T07:01:35.806Z,14.71
2022-10-08T07:04:05.120Z,14.76
2022-10-08T07:06:36.509Z,15.08
2022-10-08T07:09:04.923Z,15.13
2022-10-08T07:11:33.668Z,15.23
2022-10-08T07:14:00.987Z,14.18
2022-10-08T07:16:28.576Z,15.37
2022-10-08T07:18:58.084Z,15.38
2022-10-08T07:21:25.635Z,15.09
2022-10-08T07:23:52.953Z,15.22
2022-10-08T07:26:25.263Z,15.65
2022-10-08T07:28:55.346Z,14.59
2022-10-08T07:31:27.117Z,14.38
2022-10-08T07:33:54.273Z,15.29
2022-10-08T07:36:23.265Z,15.54
2022-10-08T07:39:03.860Z,15.89
2022-10-08T07:41:32.024Z,15.93
2022-10-08T07:44:00.841Z,16.07
2022-10-08T07:46:29.545Z,16.08
2022-10-08T07:48:59.211Z,15.89
2022-10-08T07:51:28.038Z,16.24
2022-10-08T07:54:00.240Z,16.31
2022-10-08T07:56:30.319Z,15.24
2022-10-08T07:58:58.857Z,16.32
2022-10-08T08:01:28.533Z,16.08
2022-10-08T08:04:07.306Z,16.12
2022-10-08T08:06:41.608Z,16.45
2022-10-08T08:09:09.163Z,16.04
2022-10-08T08:11:36.523Z,16.44
2022-10-08T08:14:03.826Z,16.72
2022-10-08T08:16:30.759Z,16.78
2022-10-08T08:19:01.301Z,15.76
2022-10-08T08:21:36.386Z,16.42
2022-10-08T08:24:06.218Z,16.89
2022-10-08T08:26:36.037Z,16.87
2022-10-08T08:29:08.887Z,16.91
2022-10-08T08:31:39.400Z,16.62
2022-10-08T08:34:12.807Z,15.96
2022-10-08T08:36:43.913Z,16.77
2022-10-08T08:39:19.758Z,16.03
2022-10-08T08:41:52.948Z,17.14
2022-10-08T08:44:39.254Z,16.80
2022-10-08T08:47:08.308Z,17.26
2022-10-08T08:49:49.821Z,16.80
2022-10-08T08:52:19.432Z,16.29
2022-10-08T08:54:49.562Z,17.04
2022-10-08T08:57:30.231Z,17.42
2022-10-08T09:00:03.751Z,16.32
2022-10-08T09:02:51.562Z,17.65
2022-10-08T09:05:20.204Z,17.65
2022-10-08T09:07:56.684Z,17.76
2022-10-08T09:10:39.209Z,17.63
2022-10-08T09:13:14.368Z,16.54
2022-10-08T09:15:43.005Z,17.83
2022-10-08T09:18:13.101Z,16.93
2022-10-08T09:20:40.788Z,17.69
2022-10-08T09:23:15.320Z,18.10
2022-10-08T09:25:44.540Z,17.94
2022-10-08T09:28:11.570Z,18.16
2022-10-08T09:30:41.468Z,18.23
2022-10-08T09:33:16.329Z,18.30
2022-10-08T09:35:44.963Z,17.40
2022-10-08T09:38:27.006Z,18.40
2022-10-08T09:41:20.349Z,18.48
2022-10-08T09:44:15.867Z,17.42
2022-10-08T09:46:43.198Z,18.08
2022-10-08T09:49:32.468Z,17.63
2022-10-08T09:52:05.857Z,17.65
2022-10-08T09:55:22.570Z,18.78
2022-10-08T09:58:00.475Z,18.58
2022-10-08T10:00:35.351Z,18.54
2022-10-08T10:03:05.646Z,18.93
2022-10-08T10:05:35.015Z,18.97
2022-10-08T10:08:02.362Z,19.02
2022-10-08T10:10:40.451Z,18.87
2022-10-08T10:13:27.964Z,17.98
2022-10-08T10:16:40.197Z,19.13
2022-10-08T10:19:15.736Z,18.53
2022-10-08T10:22:04.873Z,19.25
2022-10-08T10:24:50.293Z,19.33
2022-10-08T10:27:40.544Z,19.40
2022-10-08T10:30:17.136Z,19.47
2022-10-08T10:32:56.139Z,18.67
2022-10-08T10:35:28.427Z,19.52
2022-10-08T10:38:09.486Z,19.58
2022-10-08T10:40:42.455Z,18.61
2022-10-08T10:43:52.981Z,19.66
2022-10-08T10:46:25.254Z,19.68
2022-10-08T10:48:52.253Z,19.55
2022-10-08T10:51:50.553Z,19.36
2022-10-08T10:54:23.008Z,19.79
2022-10-08T10:56:56.969Z,19.47
2022-10-08T11:00:03.647Z,19.85
2022-10-08T11:02:42.177Z,18.90
2022-10-08T11:05:33.139Z,19.89
2022-10-08T11:08:30.557Z,19.94
2022-10-08T11:11:09.664Z,19.95
2022-10-08T11:13:55.260Z,19.96
2022-10-08T11:16:37.556Z,20.00
2022-10-08T11:19:11.635Z,19.95
2022-10-08T11:21:48.091Z,20.05
2022-10-08T11:24:23.956Z,20.06
2022-10-08T11:27:12.804Z,20.08
2022-10-08T11:29:52.231Z,19.69
2022-10-08T11:32:20.479Z,20.03
2022-10-08T11:35:00.950Z,20.11
2022-10-08T11:37:27.791Z,20.15
2022-10-08T11:40:10.550Z,20.17
2022-10-08T11:42:48.512Z,20.19
2022-10-08T11:45:25.819Z,20.20
2022-10-08T11:47:54.902Z,20.13
2022-10-08T11:50:32.245Z,19.40
2022-10-08T11:53:21.026Z,20.29
2022-10-08T11:55:57.163Z,19.91
2022-10-08T11:58:32.647Z,20.27
2022-10-08T12:01:07.891Z,20.29
2022-10-08T12:03:41.043Z,19.30
2022-10-08T12:06:35.891Z,19.23
2022-10-08T12:09:07.758Z,20.35
2022-10-08T12:11:43.392Z,20.36
2022-10-08T12:14:14.431Z,20.36
2022-10-08T12:16:47.593Z,20.36
2022-10-08T12:19:33.087Z,19.37
2022-10-08T12:22:02.065Z,20.38
2022-10-08T12:24:38.238Z,20.39
2022-10-08T12:27:17.762Z,20.05
2022-10-08T12:30:12.112Z,20.41
2022-10-08T12:32:42.273Z,20.44
2022-10-08T12:35:35.922Z,19.44
2022-10-08T12:38:13.775Z,20.47
2022-10-08T12:40:56.941Z,20.40
2022-10-08T12:43:51.635Z,19.53
2022-10-08T12:46:40.009Z,20.48
2022-10-08T12:49:25.169Z,20.48
2022-10-08T12:52:04.566Z,20.47
2022-10-08T12:54:32.985Z,20.46
2022-10-08T12:57:07.176Z,20.23
2022-10-08T12:59:34.235Z,20.44
2022-10-08T13:02:01.439Z,18.99
2022-10-08T13:04:33.990Z,20.52
2022-10-08T13:07:19.231Z,20.32
2022-10-08T13:09:46.225Z,20.47
2022-10-08T13:12:13.077Z,19.55
2022-10-08T13:14:40.462Z,19.73
2022-10-08T13:17:30.292Z,20.39
2022-10-08T13:20:17.019Z,19.50
2022-10-08T13:22:44.827Z,19.59
2022-10-08T13:25:35.269Z,20.63
2022-10-08T13:28:16.131Z,20.62
2022-10-08T13:30:46.953Z,20.57
2022-10-08T13:33:20.670Z,20.06
2022-10-08T13:35:52.333Z,20.58
2022-10-08T13:38:27.088Z,20.57
2022-10-08T13:40:58.762Z,20.31
2022-10-08T13:43:26.439Z,20.49
2022-10-08T13:45:53.385Z,20.39
2022-10-08T13:48:20.434Z,20.16
2022-10-08T13:50:50.282Z,19.71
2022-10-08T13:53:22.182Z,20.45
2022-10-08T13:55:50.463Z,19.57
2022-10-08T13:58:19.825Z,20.54
2022-10-08T14:00:47.892Z,20.07
2022-10-08T14:03:15.135Z,19.94
2022-10-08T14:05:45.423Z,20.31
2022-10-08T14:08:28.273Z,19.59
2022-10-08T14:10:58.307Z,19.88
2022-10-08T14:13:25.692Z,20.49
2022-10-08T14:15:52.741Z,19.78
2022-10-08T14:18:19.716Z,20.38
2022-10-08T14:20:50.632Z,20.34
2022-10-08T14:23:17.607Z,20.41
2022-10-08T14:25:44.490Z,20.28
2022-10-08T14:28:11.331Z,19.50
2022-10-08T14:30:38.121Z,20.30
2022-10-08T14:33:10.277Z,19.36
2022-10-08T14:35:38.188Z,19.06
2022-10-08T14:38:05.045Z,19.45
2022-10-08T14:40:31.969Z,19.77
2022-10-08T14:42:58.859Z,19.23
2022-10-08T14:45:26.025Z,19.02
2022-10-08T14:47:52.846Z,20.18
2022-10-08T14:50:19.778Z,20.10
2022-10-08T14:52:47.283Z,20.05
2022-10-08T14:55:14.854Z,19.68
2022-10-08T14:57:41.818Z,19.34
2022-10-08T15:00:09.197Z,18.82
2022-10-08T15:02:36.304Z,19.92
2022-10-08T15:05:03.319Z,20.05
2022-10-08T15:07:30.876Z,19.95
2022-10-08T15:09:57.934Z,19.33
2022-10-08T15:12:25.077Z,18.92
2022-10-08T15:14:51.883Z,19.83
2022-10-08T15:17:18.678Z,18.58
2022-10-08T15:19:45.628Z,19.58
2022-10-08T15:22:12.869Z,19.50
2022-10-08T15:24:39.814Z,19.17
2022-10-08T15:27:06.756Z,18.30
2022-10-08T15:29:33.561Z,18.25
2022-10-08T15:32:00.457Z,18.74
2022-10-08T15:34:27.437Z,19.04
2022-10-08T15:36:56.032Z,18.76
2022-10-08T15:39:22.993Z,18.89
2022-10-08T15:41:54.446Z,18.60
2022-10-08T15:44:28.977Z,18.75
2022-10-08T15:47:02.566Z,18.69
2022-10-08T15:49:31.299Z,17.82
2022-10-08T15:51:58.640Z,18.59
2022-10-08T15:54:25.859Z,18.41
2022-10-08T15:56:52.685Z,17.30
2022-10-08T15:59:19.683Z,17.88
2022-10-08T16:01:46.539Z,18.24
2022-10-08T16:04:14.395Z,17.80
2022-10-08T16:06:47.797Z,17.21
2022-10-08T16:09:16.707Z,17.04
2022-10-08T16:11:44.482Z,18.00
2022-10-08T16:14:14.431Z,16.92
2022-10-08T16:16:42.551Z,16.85
2022-10-08T16:19:18.368Z,17.74
2022-10-08T16:21:47.435Z,17.73
2022-10-08T16:24:15.361Z,17.68
2022-10-08T16:26:43.586Z,17.62
2022-10-08T16:29:13.017Z,17.49
2022-10-08T16:31:41.720Z,16.01
2022-10-08T16:34:13.721Z,17.31
2022-10-08T16:36:40.975Z,17.21
2022-10-08T16:39:10.063Z,16.13
2022-10-08T16:41:38.014Z,17.04
2022-10-08T16:44:12.675Z,16.04
2022-10-08T16:46:42.632Z,17.07
2022-10-08T16:49:28.176Z,15.87
2022-10-08T16:52:05.544Z,15.55
2022-10-08T16:54:33.253Z,16.47
2022-10-08T16:57:00.870Z,15.70
2022-10-08T16:59:29.843Z,16.79
2022-10-08T17:01:59.684Z,16.82
2022-10-08T17:04:29.403Z,15.66
2022-10-08T17:06:56.816Z,16.66
2022-10-08T17:09:23.742Z,16.71
2022-10-08T17:11:50.725Z,16.32
2022-10-08T17:14:17.541Z,16.58
2022-10-08T17:16:48.966Z,16.56
2022-10-08T17:19:18.026Z,16.54
2022-10-08T17:21:45.161Z,16.52
2022-10-08T17:24:12.764Z,15.86
2022-10-08T17:26:40.332Z,16.42
2022-10-08T17:29:10.243Z,16.47
2022-10-08T17:31:38.151Z,16.44
2022-10-08T17:34:06.336Z,16.41
2022-10-08T17:36:36.331Z,15.25
2022-10-08T17:39:05.824Z,16.28
2022-10-08T17:41:37.953Z,15.85
2022-10-08T17:44:07.279Z,16.25
2022-10-08T17:46:39.932Z,15.03
2022-10-08T17:49:06.915Z,15.95
2022-10-08T17:51:34.435Z,14.89
2022-10-08T17:54:04.167Z,15.45
2022-10-08T17:56:31.636Z,15.07
2022-10-08T17:58:58.960Z,14.78
2022-10-08T18:01:29.918Z,15.89
2022-10-08T18:04:03.051Z,15.85
2022-10-08T18:06:31.290Z,15.54
2022-10-08T18:09:01.124Z,15.79
2022-10-08T18:11:30.677Z,15.77
2022-10-08T18:13:58.189Z,15.73
2022-10-08T18:16:28.064Z,15.03
2022-10-08T18:18:55.340Z,15.45
2022-10-08T18:21:22.565Z,14.46
2022-10-08T18:23:49.951Z,14.60
2022-10-08T18:26:20.932Z,15.51
2022-10-08T18:28:56.462Z,15.52
2022-10-08T18:31:26.907Z,15.21
2022-10-08T18:34:00.199Z,15.41
2022-10-08T18:36:30.260Z,15.44
2022-10-08T18:39:03.230Z,15.40
2022-10-08T18:41:32.927Z,15.17
2022-10-08T18:44:00.737Z,15.11
2022-10-08T18:46:28.537Z,14.62
2022-10-08T18:48:55.974Z,14.06
2022-10-08T18:51:25.827Z,14.01
2022-10-08T18:53:55.050Z,15.05
2022-10-08T18:56:28.733Z,14.47
2022-10-08T18:59:01.755Z,14.93
2022-10-08T19:01:34.665Z,14.90
2022-10-08T19:04:04.418Z,14.83
2022-10-08T19:06:35.013Z,13.60
2022-10-08T19:09:03.282Z,13.52
2022-10-08T19:11:33.735Z,14.65
2022-10-08T19:14:01.686Z,13.62
2022-10-08T19:16:29.141Z,14.60
2022-10-08T19:18:57.179Z,14.61
2022-10-08T19:21:26.463Z,14.04
2022-10-08T19:23:54.152Z,13.57
2022-10-08T19:26:21.017Z,14.51
2022-10-08T19:28:50.969Z,14.46
2022-10-08T19:31:19.413Z,14.28
2022-10-08T19:33:58.147Z,13.14
2022-10-08T19:36:27.204Z,14.25
2022-10-08T19:38:59.364Z,12.98
2022-10-08T19:41:27.681Z,14.15
2022-10-08T19:43:56.448Z,13.97
2022-10-08T19:46:24.434Z,14.00
2022-10-08T19:48:56.501Z,13.28
2022-10-08T19:51:24.792Z,13.97
2022-10-08T19:53:52.288Z,13.53
2022-10-08T19:56:20.632Z,14.19
2022-10-08T19:58:49.690Z,14.20
2022-10-08T20:01:20.324Z,13.07
2022-10-08T20:03:47.669Z,13.93
2022-10-08T20:06:21.700Z,14.13
2022-10-08T20:08:50.283Z,12.88
2022-10-08T20:11:19.226Z,13.93
2022-10-08T20:13:48.039Z,14.02
2022-10-08T20:16:18.081Z,13.94
2022-10-08T20:18:53.365Z,13.86
2022-10-08T20:21:21.480Z,13.28
2022-10-08T20:23:48.715Z,12.81
2022-10-08T20:26:23.127Z,13.65
2022-10-08T20:28:53.118Z,13.49
2022-10-08T20:31:27.184Z,13.42
2022-10-08T20:33:59.027Z,13.39
2022-10-08T20:36:26.230Z,13.45
2022-10-08T20:38:53.722Z,13.02
2022-10-08T20:41:23.487Z,12.85
2022-10-08T20:43:55.933Z,12.95
2022-10-08T20:46:23.015Z,12.58
2022-10-08T20:48:49.877Z,13.40
2022-10-08T20:51:20.033Z,13.44
2022-10-08T20:53:55.409Z,12.43
2022-10-08T20:56:22.635Z,12.28
2022-10-08T20:58:49.775Z,12.27
2022-10-08T21:01:24.779Z,12.33
2022-10-08T21:03:52.791Z,12.45
2022-10-08T21:06:22.437Z,13.47
2022-10-08T21:08:51.396Z,13.40
2022-10-08T21:11:21.005Z,13.41
2022-10-08T21:13:48.507Z,12.18
2022-10-08T21:16:18.080Z,12.17
2022-10-08T21:18:49.495Z,12.14
2022-10-08T21:21:16.922Z,13.29
2022-10-08T21:23:45.206Z,13.14
2022-10-08T21:26:15.095Z,12.08
2022-10-08T21:28:44.170Z,13.21
2022-10-08T21:31:11.915Z,12.38
2022-10-08T21:33:40.742Z,13.09
2022-10-08T21:36:11.993Z,12.97
2022-10-08T21:38:38.858Z,12.43
2022-10-08T21:41:12.530Z,11.88
2022-10-08T21:43:40.920Z,12.97
2022-10-08T21:46:10.397Z,11.76
2022-10-08T21:48:38.255Z,12.90
2022-10-08T21:51:08.426Z,11.82
2022-10-08T21:53:37.514Z,12.88
2022-10-08T21:56:10.672Z,12.62
2022-10-08T21:58:39.904Z,11.68
2022-10-08T22:01:08.630Z,12.89
2022-10-08T22:03:35.491Z,12.84
2022-10-08T22:06:04.638Z,12.84
2022-10-08T22:08:31.838Z,12.83
2022-10-08T22:10:58.829Z,12.78
2022-10-08T22:13:25.783Z,12.60
2022-10-08T22:15:57.123Z,12.83
2022-10-08T22:18:25.326Z,12.79
2022-10-08T22:20:52.959Z,11.62
2022-10-08T22:23:20.635Z,11.83
2022-10-08T22:26:01.522Z,12.27
2022-10-08T22:28:29.018Z,12.58
2022-10-08T22:30:58.799Z,12.42
2022-10-08T22:33:25.960Z,11.35
2022-10-08T22:35:52.909Z,11.31
2022-10-08T22:38:19.728Z,12.58
2022-10-08T22:40:46.583Z,12.40
2022-10-08T22:43:13.390Z,11.37
2022-10-08T22:45:41.560Z,12.57
2022-10-08T22:48:08.500Z,12.46
2022-10-08T22:50:36.099Z,12.34
2022-10-08T22:53:02.872Z,12.36
2022-10-08T22:55:29.781Z,12.51
2022-10-08T22:57:56.738Z,12.48
2022-10-08T23:00:23.655Z,12.29
2022-10-08T23:02:50.817Z,12.43
2022-10-08T23:05:17.854Z,11.42
2022-10-08T23:07:44.675Z,12.41
2022-10-08T23:10:11.496Z,11.18
2022-10-08T23:12:38.295Z,11.68
2022-10-08T23:15:05.524Z,11.11
2022-10-08T23:17:32.418Z,11.07
2022-10-08T23:19:59.277Z,11.60
2022-10-08T23:22:26.190Z,12.15
2022-10-08T23:24:53.078Z,11.13
2022-10-08T23:27:20.305Z,12.28
2022-10-08T23:29:47.310Z,11.09
2022-10-08T23:32:14.133Z,12.31
2022-10-08T23:34:41.029Z,12.26
2022-10-08T23:37:07.874Z,11.05
2022-10-08T23:39:34.730Z,12.25
2022-10-08T23:42:01.512Z,11.24
2022-10-08T23:44:28.327Z,11.63
2022-10-08T23:46:55.136Z,12.17
2022-10-08T23:49:21.873Z,12.05
2022-10-08T23:51:48.818Z,12.14
2022-10-08T23:54:15.597Z,11.51
2022-10-08T23:56:42.461Z,11.65
2022-10-08T23:59:09.505Z,11.76
